Time;durP1;ratioP1;P1;durP2;ratioP2;P2;SDS_P1;SDS_P2;PMS_P1;PMS_P2;Temp;Humidity;BMP_temperature;BMP_pressure;BME280_temperature;BME280_humidity;BME280_pressure;Samples;Min_cycle;Max_cycle;Signal;HPM_P1;HPM_P2
2022/01/28 00:00:27;;;;;;;24.95;4.32;;;4.00;99.90;;;;;;5013395;28;20049;-82
2022/01/28 00:03:01;;;;;;;16.48;2.90;;;3.90;99.90;;;;;;5012282;28;20061;-84
2022/01/28 00:05:27;;;;;;;16.77;3.17;;;3.80;99.90;;;;;;5031228;28;20062;-83
2022/01/28 00:07:54;;;;;;;23.77;3.92;;;3.90;99.90;;;;;;5028811;28;20048;-82
2022/01/28 00:10:21;;;;;;;29.30;5.15;;;4.00;99.90;;;;;;5012672;28;20508;-83
2022/01/28 00:13:19;;;;;;;15.95;2.25;;;4.20;99.90;;;;;;5029750;28;20050;-82
2022/01/28 00:15:39;;;;;;;18.75;3.30;;;4.40;99.90;;;;;;5011073;28;20192;-83
2022/01/28 00:39:28;;;;;;;21.73;3.08;;;4.00;99.90;;;;;;5029883;28;20500;-83
2022/01/28 00:41:54;;;;;;;27.60;5.10;;;4.10;99.90;;;;;;5029873;28;20099;-83
2022/01/28 00:44:19;;;;;;;25.10;3.67;;;4.00;99.90;;;;;;5031216;28;20053;-83
2022/01/28 00:46:45;;;;;;;19.23;3.58;;;4.00;99.90;;;;;;5013448;28;20500;-83
2022/01/28 00:49:11;;;;;;;19.23;2.97;;;4.00;99.90;;;;;;5028545;28;20041;-82
2022/01/28 00:51:36;;;;;;;14.60;3.30;;;4.00;99.90;;;;;;5029095;28;20049;-83
2022/01/28 00:54:02;;;;;;;16.73;2.75;;;4.10;99.90;;;;;;5011981;28;20060;-82
2022/01/28 00:56:28;;;;;;;18.98;3.25;;;4.30;99.90;;;;;;5029478;28;20064;-82
2022/01/28 00:58:54;;;;;;;19.15;4.47;;;4.10;99.90;;;;;;5030639;28;20045;-82
2022/01/28 01:01:20;;;;;;;23.48;4.32;;;4.20;99.90;;;;;;5030624;28;20081;-82
2022/01/28 01:03:45;;;;;;;16.52;2.95;;;4.20;99.90;;;;;;5029294;28;20092;-83
2022/01/28 01:06:11;;;;;;;23.02;3.92;;;4.20;99.90;;;;;;5029368;28;20046;-83
2022/01/28 01:08:37;;;;;;;17.08;3.20;;;4.40;99.90;;;;;;5029896;28;20049;-82
2022/01/28 01:11:03;;;;;;;25.08;4.00;;;4.40;99.90;;;;;;5023688;28;20046;-82
2022/01/28 01:13:29;;;;;;;24.17;4.22;;;4.40;99.90;;;;;;5010458;28;20093;-83
2022/01/28 01:15:59;;;;;;;24.55;4.03;;;4.40;99.90;;;;;;5008789;28;20053;-82
2022/01/28 01:18:33;;;;;;;17.90;3.30;;;4.30;99.90;;;;;;5011006;28;20046;-83
2022/01/28 01:21:04;;;;;;;24.52;3.88;;;4.50;99.90;;;;;;4990622;28;20053;-82
2022/01/28 01:23:34;;;;;;;24.45;3.60;;;4.60;99.90;;;;;;4991529;28;20089;-82
2022/01/28 01:28:36;;;;;;;29.80;4.32;;;4.50;99.90;;;;;;5008497;28;20054;-83
2022/01/28 01:31:04;;;;;;;21.08;4.10;;;4.50;99.90;;;;;;4992569;28;20443;-83
2022/01/28 01:33:40;;;;;;;22.40;3.28;;;4.40;99.90;;;;;;5011023;28;20524;-83
2022/01/28 01:36:06;;;;;;;23.50;3.42;;;4.30;99.90;;;;;;4990240;28;20100;-83
2022/01/28 01:38:35;;;;;;;26.58;3.78;;;4.20;99.90;;;;;;5010769;28;20132;-82
2022/01/28 01:41:03;;;;;;;17.67;3.83;;;4.20;99.90;;;;;;5012633;28;20046;-82
2022/01/28 01:43:45;;;;;;;23.58;3.85;;;4.30;99.90;;;;;;4996262;28;20058;-83
2022/01/28 01:52:05;;;;;;;17.08;4.80;;;4.50;99.90;;;;;;4990765;28;20050;-83
2022/01/28 01:54:38;;;;;;;26.42;3.70;;;4.40;99.90;;;;;;4996530;28;20101;-83
2022/01/28 01:57:06;;;;;;;26.02;5.57;;;4.40;99.90;;;;;;5014226;28;20049;-82
2022/01/28 01:59:32;;;;;;;35.63;5.03;;;4.30;99.90;;;;;;5012190;28;20133;-82
2022/01/28 02:01:58;;;;;;;17.15;3.45;;;4.30;99.90;;;;;;5011789;28;20479;-82
2022/01/28 02:04:23;;;;;;;25.42;5.45;;;4.20;99.90;;;;;;5012102;28;20140;-82
2022/01/28 02:06:50;;;;;;;23.35;2.90;;;4.30;99.90;;;;;;5012954;28;20085;-83
2022/01/28 02:09:16;;;;;;;22.55;3.47;;;4.40;99.90;;;;;;4996129;28;20073;-82
2022/01/28 02:11:42;;;;;;;25.23;5.18;;;4.50;99.90;;;;;;5010962;28;20424;-82
2022/01/28 02:14:08;;;;;;;31.10;5.50;;;4.40;99.90;;;;;;5011164;28;20203;-82
2022/01/28 02:16:34;;;;;;;27.27;5.25;;;4.50;99.90;;;;;;5013559;28;20568;-82
2022/01/28 02:19:01;;;;;;;35.10;6.95;;;4.60;99.90;;;;;;5011477;28;20038;-82
2022/01/28 02:21:26;;;;;;;24.40;4.35;;;4.70;99.90;;;;;;4994772;28;20539;-82
2022/01/28 02:23:58;;;;;;;26.13;4.18;;;4.70;99.90;;;;;;5012855;28;20073;-82
2022/01/28 02:26:24;;;;;;;24.92;6.13;;;4.80;99.90;;;;;;4994099;28;20054;-82
2022/01/28 02:28:54;;;;;;;34.08;5.35;;;4.90;99.90;;;;;;5010621;28;20440;-83
2022/01/28 02:31:24;;;;;;;25.88;3.72;;;5.00;99.90;;;;;;5012113;28;20122;-83
2022/01/28 02:33:52;;;;;;;31.85;4.82;;;5.00;99.90;;;;;;4995497;28;20128;-83
2022/01/28 02:36:18;;;;;;;32.53;6.00;;;5.00;99.90;;;;;;5011674;28;20049;-82
2022/01/28 02:38:43;;;;;;;42.60;5.40;;;4.90;99.90;;;;;;5011667;28;20062;-82
2022/01/28 02:41:09;;;;;;;29.73;5.43;;;5.00;99.90;;;;;;5011877;28;20105;-83
2022/01/28 02:46:20;;;;;;;26.08;5.28;;;4.90;99.90;;;;;;5013328;28;20174;-82
2022/01/28 02:48:59;;;;;;;30.85;4.82;;;4.90;99.90;;;;;;5011586;28;20050;-83
2022/01/28 02:51:25;;;;;;;44.20;5.78;;;4.80;99.90;;;;;;4993916;28;20524;-82
2022/01/28 02:58:48;;;;;;;25.38;4.57;;;4.70;99.90;;;;;;5016248;28;20053;-83
2022/01/28 03:01:17;;;;;;;24.60;5.65;;;4.60;99.90;;;;;;5018989;28;20046;-82
2022/01/28 03:03:44;;;;;;;38.08;6.70;;;4.70;99.90;;;;;;5016743;28;20054;-82
2022/01/28 03:06:12;;;;;;;30.88;6.07;;;4.80;99.90;;;;;;5016192;28;20054;-82
2022/01/28 03:08:42;;;;;;;31.88;5.53;;;4.70;99.90;;;;;;5011274;28;20053;-83
2022/01/28 03:16:27;;;;;;;27.60;6.15;;;4.70;99.90;;;;;;5012535;28;20382;-82
2022/01/28 03:18:57;;;;;;;32.70;4.80;;;4.60;99.90;;;;;;5014168;28;20080;-82
2022/01/28 03:23:54;;;;;;;35.00;5.47;;;4.70;99.90;;;;;;5010918;28;20058;-82
2022/01/28 03:26:20;;;;;;;30.70;6.10;;;4.80;99.90;;;;;;5011055;28;20130;-83
2022/01/28 03:28:46;;;;;;;30.33;4.95;;;4.90;99.90;;;;;;4993526;28;20049;-82
2022/01/28 03:31:12;;;;;;;30.55;3.75;;;5.00;99.90;;;;;;5012018;28;20389;-82
2022/01/28 03:33:38;;;;;;;21.48;4.63;;;5.10;99.90;;;;;;4976696;28;20053;-83
2022/01/28 03:36:07;;;;;;;25.50;4.90;;;5.20;99.90;;;;;;5010917;28;20050;-83
2022/01/28 03:38:33;;;;;;;27.85;5.35;;;5.20;99.90;;;;;;5010227;28;20534;-83
2022/01/28 03:40:58;;;;;;;24.83;4.07;;;5.20;99.90;;;;;;5010416;28;20045;-82
2022/01/28 03:43:24;;;;;;;31.50;4.40;;;5.20;99.90;;;;;;5011982;28;20057;-83
2022/01/28 03:45:50;;;;;;;22.92;5.60;;;5.20;99.90;;;;;;5010891;28;20062;-82
2022/01/28 03:48:15;;;;;;;21.13;4.18;;;5.10;99.90;;;;;;5009732;28;20038;-82
2022/01/28 03:50:41;;;;;;;26.35;3.92;;;5.10;99.90;;;;;;5010751;28;20046;-82
2022/01/28 03:53:08;;;;;;;25.58;4.68;;;5.20;99.90;;;;;;5010387;28;20050;-82
2022/01/28 03:55:34;;;;;;;29.90;5.20;;;5.20;99.90;;;;;;5010398;28;20061;-83
2022/01/28 03:58:00;;;;;;;17.05;4.18;;;5.20;99.90;;;;;;5010186;28;20149;-83
2022/01/28 04:00:29;;;;;;;27.92;4.90;;;5.20;99.90;;;;;;5011397;28;20551;-83
2022/01/28 04:03:06;;;;;;;24.02;4.53;;;5.20;99.90;;;;;;5010483;28;20099;-83
2022/01/28 04:13:53;;;;;;;17.33;3.67;;;5.20;99.90;;;;;;5009293;28;20081;-83
2022/01/28 04:18:53;;;;;;;19.40;4.38;;;5.10;99.90;;;;;;5009530;28;20052;-82
2022/01/28 04:21:18;;;;;;;26.75;4.22;;;4.90;99.90;;;;;;5009804;28;20136;-82
2022/01/28 04:23:44;;;;;;;22.30;4.20;;;4.70;99.90;;;;;;5009100;28;20538;-82
2022/01/28 04:26:10;;;;;;;21.13;4.25;;;4.50;99.90;;;;;;5009068;28;20053;-82
2022/01/28 04:28:35;;;;;;;21.55;4.18;;;4.30;99.90;;;;;;5008505;28;20052;-82
2022/01/28 04:31:01;;;;;;;21.77;4.32;;;4.20;99.90;;;;;;4991149;28;20050;-82
2022/01/28 04:33:29;;;;;;;23.98;4.18;;;4.10;99.90;;;;;;5009610;28;20058;-82
2022/01/28 04:35:55;;;;;;;26.05;4.15;;;4.10;99.90;;;;;;5010761;28;20459;-82
2022/01/28 04:38:35;;;;;;;24.20;5.80;;;3.90;99.90;;;;;;4991885;28;20058;-82
2022/01/28 04:41:19;;;;;;;22.05;5.70;;;3.80;99.90;;;;;;4992455;28;20061;-82
2022/01/28 04:43:51;;;;;;;25.00;6.03;;;3.70;99.90;;;;;;5009478;28;20061;-82
2022/01/28 04:49:35;;;;;;;24.15;4.47;;;3.50;99.90;;;;;;5009975;28;20046;-82
2022/01/28 04:57:11;;;;;;;34.33;6.25;;;3.60;99.90;;;;;;5007773;28;20080;-82
2022/01/28 05:00:03;;;;;;;37.13;5.63;;;3.70;99.90;;;;;;4991873;28;20054;-82
2022/01/28 05:08:20;;;;;;;32.20;5.00;;;3.90;99.90;;;;;;4990789;28;20056;-82
2022/01/28 05:24:12;;;;;;;27.52;6.60;;;4.20;99.90;;;;;;5010176;28;20075;-83
2022/01/28 05:26:41;;;;;;;29.00;3.60;;;4.10;99.90;;;;;;5010684;28;20057;-82
2022/01/28 05:29:07;;;;;;;24.02;4.35;;;4.40;99.90;;;;;;5009821;28;20049;-82
2022/01/28 05:31:33;;;;;;;26.52;4.55;;;4.20;99.90;;;;;;5010184;28;20054;-82
2022/01/28 05:33:58;;;;;;;37.05;5.18;;;4.00;99.90;;;;;;5008473;28;20080;-82
2022/01/28 05:36:24;;;;;;;31.67;5.90;;;3.80;99.90;;;;;;5008357;28;20053;-83
2022/01/28 05:38:50;;;;;;;26.67;4.05;;;3.70;99.90;;;;;;4991479;28;20049;-82
2022/01/28 05:41:16;;;;;;;22.40;6.03;;;3.60;99.90;;;;;;5008265;28;20583;-82
2022/01/28 05:43:41;;;;;;;28.10;6.07;;;3.50;99.90;;;;;;5009297;28;20042;-82
2022/01/28 05:46:08;;;;;;;30.50;7.28;;;3.60;99.90;;;;;;5008125;28;20104;-82
2022/01/28 05:48:33;;;;;;;31.30;4.75;;;3.90;99.90;;;;;;5008151;28;20065;-82
2022/01/28 05:50:59;;;;;;;28.70;4.45;;;3.90;99.90;;;;;;5008558;28;20050;-83
2022/01/28 05:53:25;;;;;;;34.92;5.05;;;3.90;99.90;;;;;;5010025;28;20076;-83
2022/01/28 05:55:50;;;;;;;31.25;4.95;;;3.90;99.90;;;;;;5008209;28;20042;-82
2022/01/28 05:58:16;;;;;;;25.05;5.45;;;4.00;99.90;;;;;;5009137;28;20397;-82
2022/01/28 06:00:42;;;;;;;38.38;4.75;;;4.00;99.90;;;;;;5008482;28;20049;-82
2022/01/28 06:03:07;;;;;;;36.70;5.65;;;4.00;99.90;;;;;;5008294;28;20062;-82
2022/01/28 06:05:33;;;;;;;17.52;4.03;;;4.10;99.90;;;;;;5008420;28;20050;-82
2022/01/28 06:07:59;;;;;;;17.52;4.03;;;4.10;99.90;;;;;;5009451;28;20125;-82
2022/01/28 06:10:26;;;;;;;31.70;5.40;;;4.10;99.90;;;;;;5008289;28;20057;-82
2022/01/28 06:12:51;;;;;;;24.40;4.85;;;4.20;99.90;;;;;;4991551;28;20096;-81
2022/01/28 06:15:17;;;;;;;26.00;3.80;;;4.30;99.90;;;;;;5007946;28;20046;-82
2022/01/28 06:17:43;;;;;;;23.55;5.70;;;4.30;99.90;;;;;;5008624;28;20070;-82
2022/01/28 06:20:11;;;;;;;23.98;5.05;;;4.30;99.90;;;;;;5009107;28;20042;-83
2022/01/28 06:22:42;;;;;;;26.00;4.53;;;4.40;99.90;;;;;;5010140;28;20054;-82
2022/01/28 06:25:10;;;;;;;28.83;5.43;;;4.40;99.90;;;;;;4990193;28;20053;-82
2022/01/28 06:27:36;;;;;;;24.63;4.82;;;4.50;99.90;;;;;;5011116;28;20096;-83
2022/01/28 06:30:04;;;;;;;21.75;3.33;;;4.50;99.90;;;;;;5011658;28;20042;-82
2022/01/28 06:32:33;;;;;;;29.10;4.00;;;4.60;99.90;;;;;;5011982;28;20042;-82
2022/01/28 06:35:08;;;;;;;35.25;4.85;;;4.60;99.90;;;;;;5011839;28;20065;-82
2022/01/28 06:37:42;;;;;;;26.17;6.15;;;4.60;99.90;;;;;;4994887;28;20115;-82
2022/01/28 06:40:11;;;;;;;33.25;5.13;;;4.50;99.90;;;;;;5012143;28;20058;-82
2022/01/28 06:42:36;;;;;;;28.95;4.60;;;4.50;99.90;;;;;;5014268;28;20147;-82
2022/01/28 06:45:03;;;;;;;30.52;4.85;;;4.50;99.90;;;;;;4996814;28;20457;-83
2022/01/28 06:47:29;;;;;;;28.00;4.13;;;4.40;99.90;;;;;;4979762;28;20277;-82
2022/01/28 06:49:55;;;;;;;29.70;4.18;;;4.20;99.90;;;;;;5012158;28;20123;-82
2022/01/28 06:52:21;;;;;;;29.65;5.38;;;4.40;99.90;;;;;;5012734;28;20101;-83
2022/01/28 06:54:46;;;;;;;26.55;5.72;;;4.20;99.90;;;;;;5012867;28;20575;-82
2022/01/28 06:57:12;;;;;;;33.92;6.93;;;4.20;99.90;;;;;;5012939;28;20054;-83
2022/01/28 06:59:38;;;;;;;32.90;5.18;;;4.00;99.90;;;;;;5012347;28;20504;-82
2022/01/28 07:02:03;;;;;;;25.40;5.55;;;4.00;99.90;;;;;;4994309;28;20050;-82
2022/01/28 07:04:33;;;;;;;26.10;5.07;;;3.80;99.90;;;;;;5013376;28;20390;-82
2022/01/28 07:06:58;;;;;;;32.25;6.13;;;3.70;99.90;;;;;;5013305;28;20123;-83
2022/01/28 07:09:24;;;;;;;23.67;4.97;;;3.60;99.90;;;;;;5013035;28;20069;-81
2022/01/28 07:11:50;;;;;;;36.08;4.75;;;3.40;99.90;;;;;;5013548;28;20145;-82
2022/01/28 07:14:16;;;;;;;22.13;4.57;;;3.30;99.90;;;;;;4996506;28;20042;-82
2022/01/28 07:16:41;;;;;;;38.65;7.10;;;3.30;99.90;;;;;;4994692;28;20085;-82
2022/01/28 07:19:08;;;;;;;18.10;4.28;;;3.40;99.90;;;;;;5012911;28;20115;-82
2022/01/28 07:21:34;;;;;;;43.97;6.97;;;3.50;99.90;;;;;;5012654;28;20058;-83
2022/01/28 07:23:59;;;;;;;30.80;5.10;;;3.50;99.90;;;;;;5013546;28;20056;-82
2022/01/28 07:26:25;;;;;;;33.15;5.32;;;3.60;99.90;;;;;;5011716;28;20423;-82
2022/01/28 07:28:52;;;;;;;33.33;5.22;;;3.70;99.90;;;;;;5010117;28;20049;-83
2022/01/28 07:31:19;;;;;;;29.20;3.90;;;3.90;99.90;;;;;;4991818;28;20042;-82
2022/01/28 07:33:45;;;;;;;37.67;5.47;;;3.90;99.90;;;;;;5009573;28;20054;-83
2022/01/28 07:36:10;;;;;;;27.90;4.35;;;4.10;99.90;;;;;;5009715;28;20464;-83
2022/01/28 07:38:36;;;;;;;32.80;4.60;;;4.10;99.90;;;;;;5010884;28;20080;-83
2022/01/28 07:41:05;;;;;;;20.08;3.80;;;4.40;99.90;;;;;;4991463;28;20045;-83
2022/01/28 07:43:34;;;;;;;23.13;4.45;;;4.30;99.90;;;;;;5009788;28;20404;-83
2022/01/28 07:46:00;;;;;;;27.70;4.72;;;4.40;99.90;;;;;;5009732;28;20366;-82
2022/01/28 07:48:25;;;;;;;32.03;5.47;;;4.50;99.90;;;;;;5010037;28;20054;-83
2022/01/28 07:50:51;;;;;;;30.00;5.57;;;4.40;99.90;;;;;;5010910;28;20054;-82
2022/01/28 07:53:17;;;;;;;33.45;4.97;;;4.30;99.90;;;;;;5012253;28;20053;-82
2022/01/28 07:55:43;;;;;;;27.77;4.13;;;4.30;99.90;;;;;;4994358;28;20148;-82
2022/01/28 07:58:09;;;;;;;25.55;4.63;;;4.30;99.90;;;;;;4977333;28;20136;-83
2022/01/28 08:00:35;;;;;;;28.40;5.18;;;4.30;99.90;;;;;;5009295;28;20073;-82
2022/01/28 08:03:01;;;;;;;28.55;5.47;;;4.30;99.90;;;;;;5010129;28;20042;-82
2022/01/28 08:05:27;;;;;;;35.35;6.95;;;4.30;99.90;;;;;;5027242;28;20119;-81
2022/01/28 08:07:53;;;;;;;29.02;4.78;;;4.30;99.90;;;;;;5029944;28;20128;-81
2022/01/28 08:10:20;;;;;;;30.92;4.53;;;4.30;99.90;;;;;;5030188;28;20678;-82
2022/01/28 08:12:46;;;;;;;25.73;5.78;;;4.20;99.90;;;;;;5028881;28;20095;-82
2022/01/28 08:15:12;;;;;;;30.73;6.05;;;4.20;99.90;;;;;;5029404;28;20058;-82
2022/01/28 08:17:38;;;;;;;29.42;5.93;;;4.10;99.90;;;;;;5029526;28;20053;-82
2022/01/28 08:20:04;;;;;;;24.52;4.82;;;3.90;99.90;;;;;;5035986;28;20049;-82
2022/01/28 08:22:30;;;;;;;26.00;4.53;;;3.70;99.90;;;;;;5037405;28;20087;-82
2022/01/28 08:24:55;;;;;;;28.58;5.25;;;4.60;99.90;;;;;;5034852;28;20396;-82
2022/01/28 08:27:21;;;;;;;21.40;4.93;;;3.50;99.90;;;;;;5029441;28;20053;-82
2022/01/28 08:29:46;;;;;;;24.75;5.13;;;3.60;99.90;;;;;;5029024;28;20049;-82
2022/01/28 08:32:12;;;;;;;33.58;6.93;;;3.80;99.90;;;;;;5029067;28;20503;-81
2022/01/28 08:34:38;;;;;;;27.48;5.25;;;4.00;99.90;;;;;;5031786;28;20121;-82
2022/01/28 08:37:04;;;;;;;31.85;5.25;;;4.10;99.90;;;;;;5014236;28;20045;-82
2022/01/28 08:39:31;;;;;;;36.97;7.00;;;4.20;99.90;;;;;;5016559;28;20045;-82
2022/01/28 08:41:57;;;;;;;25.70;4.80;;;5.00;99.90;;;;;;5034211;28;20056;-82
2022/01/28 08:44:23;;;;;;;42.88;8.52;;;4.50;99.90;;;;;;5029403;28;20125;-82
2022/01/28 08:46:49;;;;;;;29.70;4.55;;;4.60;99.90;;;;;;5029647;28;20083;-81
2022/01/28 08:49:14;;;;;;;24.75;5.13;;;4.60;99.90;;;;;;5032872;28;20069;-81
2022/01/28 08:51:40;;;;;;;25.92;6.18;;;4.50;99.90;;;;;;5029098;28;20052;-82
2022/01/28 08:54:06;;;;;;;30.90;6.00;;;4.40;99.90;;;;;;5028889;28;20054;-81
2022/01/28 08:56:32;;;;;;;32.17;5.38;;;4.30;99.90;;;;;;5011899;28;20049;-81
2022/01/28 08:58:57;;;;;;;27.23;4.88;;;4.30;99.90;;;;;;5029654;28;20400;-82
2022/01/28 09:01:23;;;;;;;30.60;5.45;;;4.30;99.90;;;;;;5010364;28;20081;-81
2022/01/28 09:03:49;;;;;;;19.67;5.03;;;4.30;99.90;;;;;;5029280;28;20063;-81
2022/01/28 09:06:15;;;;;;;29.23;4.82;;;4.30;99.90;;;;;;5028623;28;20049;-82
2022/01/28 09:08:43;;;;;;;28.63;5.30;;;4.40;99.90;;;;;;5027894;28;20465;-83
2022/01/28 09:13:47;;;;;;;22.85;4.57;;;4.40;99.90;;;;;;5029006;28;20136;-83
2022/01/28 09:16:13;;;;;;;28.40;4.38;;;4.50;99.90;;;;;;5027716;28;20152;-82
2022/01/28 09:18:39;;;;;;;33.22;6.18;;;4.50;99.90;;;;;;5028060;28;20045;-81
2022/01/28 09:21:05;;;;;;;27.20;4.95;;;4.50;99.90;;;;;;5027210;28;20071;-81
2022/01/28 09:23:30;;;;;;;20.67;3.90;;;5.30;99.90;;;;;;5027690;28;20045;-82
2022/01/28 09:25:56;;;;;;;29.40;4.80;;;4.70;99.90;;;;;;5027376;28;20492;-82
2022/01/28 09:28:24;;;;;;;30.27;5.78;;;4.80;99.90;;;;;;5027903;28;20048;-82
2022/01/28 09:30:50;;;;;;;21.70;4.90;;;5.00;99.90;;;;;;5028090;28;20076;-81
2022/01/28 09:33:15;;;;;;;28.15;3.97;;;5.10;99.90;;;;;;5025803;28;20077;-82
2022/01/28 09:35:41;;;;;;;44.30;6.50;;;5.20;99.90;;;;;;5025252;28;20076;-81
2022/01/28 09:38:08;;;;;;;28.08;6.00;;;5.40;99.90;;;;;;5007088;28;20151;-82
2022/01/28 09:40:33;;;;;;;25.58;4.55;;;5.60;99.90;;;;;;5026362;28;20265;-82
2022/01/28 09:43:01;;;;;;;33.88;6.30;;;5.70;99.90;;;;;;5027233;28;20115;-81
2022/01/28 09:45:27;;;;;;;30.52;4.43;;;5.90;99.90;;;;;;5026214;28;20049;-82
2022/01/28 09:47:56;;;;;;;29.73;6.43;;;6.00;99.90;;;;;;5026941;28;20041;-82
2022/01/28 09:50:24;;;;;;;29.17;5.55;;;6.10;99.90;;;;;;5009620;28;20060;-82
2022/01/28 09:52:51;;;;;;;25.08;4.63;;;6.20;99.90;;;;;;5026750;28;20049;-82
2022/01/28 09:55:17;;;;;;;26.23;5.38;;;6.30;99.90;;;;;;5026327;28;20034;-82
2022/01/28 09:57:45;;;;;;;21.27;4.20;;;6.40;99.90;;;;;;5025496;28;20124;-82
2022/01/28 10:00:13;;;;;;;33.25;5.05;;;6.50;99.90;;;;;;5026807;28;20077;-82
2022/01/28 10:02:53;;;;;;;30.30;4.90;;;6.50;99.90;;;;;;5029206;28;20061;-82
2022/01/28 10:05:30;;;;;;;35.53;5.03;;;6.50;99.90;;;;;;5029098;28;20103;-82
2022/01/28 10:08:12;;;;;;;29.65;5.60;;;6.60;99.90;;;;;;5031583;28;20050;-82
2022/01/28 10:10:47;;;;;;;24.15;3.90;;;6.60;99.90;;;;;;5009492;28;20424;-82
2022/01/28 10:13:17;;;;;;;26.33;5.32;;;6.60;99.90;;;;;;5028795;28;20360;-83
2022/01/28 10:16:03;;;;;;;31.35;5.75;;;6.70;99.90;;;;;;5029112;28;20169;-82
2022/01/28 10:18:45;;;;;;;38.40;5.60;;;6.70;99.90;;;;;;5010174;28;20168;-82
2022/01/28 10:21:21;;;;;;;31.98;4.72;;;6.70;99.90;;;;;;5009804;28;20432;-82
2022/01/28 10:24:00;;;;;;;20.55;5.63;;;6.80;99.90;;;;;;4995072;28;20488;-82
2022/01/28 10:26:35;;;;;;;21.33;4.07;;;6.90;99.90;;;;;;5028525;28;20053;-81
2022/01/28 10:29:04;;;;;;;36.28;6.53;;;7.00;99.90;;;;;;5010976;28;20056;-82
2022/01/28 10:32:01;;;;;;;40.45;6.07;;;7.10;99.90;;;;;;5013450;28;20049;-82
2022/01/28 10:34:34;;;;;;;40.95;5.65;;;7.10;99.90;;;;;;5032514;28;20061;-82
2022/01/28 10:37:17;;;;;;;28.33;4.65;;;7.10;99.90;;;;;;5029433;28;20057;-82
2022/01/28 10:39:54;;;;;;;26.45;4.75;;;7.20;99.90;;;;;;5029631;28;20056;-82
2022/01/28 10:42:36;;;;;;;31.60;5.53;;;7.30;99.90;;;;;;5027289;28;20219;-82
2022/01/28 10:45:12;;;;;;;27.00;4.75;;;7.30;99.90;;;;;;5028962;28;20071;-83
2022/01/28 10:47:53;;;;;;;28.25;5.63;;;7.40;99.90;;;;;;5030146;28;20073;-82
2022/01/28 10:50:34;;;;;;;31.52;5.50;;;7.50;99.90;;;;;;5028611;28;20054;-81
2022/01/28 10:53:00;;;;;;;28.63;5.68;;;7.60;99.90;;;;;;5027147;28;20049;-82
2022/01/28 10:55:27;;;;;;;28.60;5.93;;;7.60;99.90;;;;;;5027301;28;20068;-81
2022/01/28 10:57:57;;;;;;;34.72;6.03;;;7.70;99.90;;;;;;5026373;28;20095;-82
2022/01/28 11:00:27;;;;;;;28.35;5.25;;;7.70;99.90;;;;;;5009264;28;20049;-82
2022/01/28 11:02:53;;;;;;;24.05;3.80;;;7.60;99.90;;;;;;5027055;28;20060;-82
2022/01/28 11:05:21;;;;;;;24.17;4.85;;;7.50;99.90;;;;;;5026426;28;20203;-81
2022/01/28 11:07:47;;;;;;;24.45;5.90;;;7.40;99.90;;;;;;5027886;28;20045;-82
2022/01/28 11:10:14;;;;;;;28.13;5.20;;;7.40;99.90;;;;;;5026942;28;20048;-82
2022/01/28 11:12:40;;;;;;;24.33;5.05;;;7.50;99.90;;;;;;5024982;28;20056;-82
2022/01/28 11:15:06;;;;;;;24.70;5.35;;;7.60;99.90;;;;;;5026552;28;20050;-82
2022/01/28 11:17:32;;;;;;;23.60;4.82;;;7.70;99.90;;;;;;5027050;28;20076;-82
2022/01/28 11:19:59;;;;;;;34.53;5.32;;;7.80;99.90;;;;;;5027250;28;20045;-82
2022/01/28 11:22:45;;;;;;;19.88;4.38;;;8.00;99.90;;;;;;5027371;28;20049;-82
2022/01/28 11:25:36;;;;;;;32.53;5.23;;;8.20;99.90;;;;;;5028318;28;20101;-82
2022/01/28 11:28:07;;;;;;;32.35;5.13;;;8.10;99.90;;;;;;5026546;28;20038;-82
2022/01/28 11:30:35;;;;;;;26.92;5.57;;;8.20;99.90;;;;;;5028694;28;20049;-81
2022/01/28 11:33:08;;;;;;;25.75;4.55;;;8.20;99.90;;;;;;5009607;28;20393;-82
2022/01/28 11:36:03;;;;;;;25.67;4.30;;;8.20;99.90;;;;;;5027032;28;20149;-82
2022/01/28 11:38:29;;;;;;;25.50;4.70;;;8.20;99.90;;;;;;5015017;28;20110;-82
2022/01/28 11:41:01;;;;;;;22.70;4.00;;;8.00;99.90;;;;;;5027293;28;20049;-82
2022/01/28 11:43:32;;;;;;;21.80;4.53;;;7.90;99.90;;;;;;5026491;28;20049;-81
2022/01/28 11:46:16;;;;;;;34.03;5.25;;;7.70;99.90;;;;;;5029107;28;20056;-81
2022/01/28 11:48:57;;;;;;;32.38;5.57;;;7.50;99.90;;;;;;5026474;28;20080;-82
2022/01/28 11:51:32;;;;;;;25.20;3.95;;;7.30;99.90;;;;;;5027656;28;20057;-82
2022/01/28 11:54:00;;;;;;;24.50;5.20;;;7.30;99.90;;;;;;5026834;28;20945;-81
2022/01/28 11:56:27;;;;;;;24.48;4.95;;;7.40;99.90;;;;;;5027927;28;20054;-81
2022/01/28 11:58:58;;;;;;;27.23;4.47;;;7.50;99.90;;;;;;5027074;28;20539;-81
2022/01/28 12:01:26;;;;;;;23.02;4.60;;;7.50;99.90;;;;;;5027656;28;20037;-81
2022/01/28 12:04:27;;;;;;;22.05;4.30;;;7.50;99.90;;;;;;5008993;28;20299;-81
2022/01/28 12:06:54;;;;;;;25.63;4.53;;;7.40;99.90;;;;;;5009272;28;20053;-81
2022/01/28 12:09:19;;;;;;;17.63;3.60;;;7.30;99.90;;;;;;5026094;28;20095;-81
2022/01/28 12:11:46;;;;;;;25.73;3.58;;;7.40;99.90;;;;;;5026892;28;20042;-81
2022/01/28 12:14:13;;;;;;;27.30;4.47;;;7.50;99.90;;;;;;5026005;28;20061;-81
2022/01/28 12:16:45;;;;;;;32.90;5.72;;;7.40;99.90;;;;;;5026413;28;20049;-81
2022/01/28 12:19:22;;;;;;;30.88;5.55;;;7.40;99.90;;;;;;5028071;28;20351;-81
2022/01/28 12:22:10;;;;;;;25.50;3.67;;;7.30;99.90;;;;;;5026146;28;20045;-81
2022/01/28 12:24:37;;;;;;;19.13;4.40;;;7.30;99.90;;;;;;5024877;28;20476;-81
2022/01/28 12:27:13;;;;;;;29.63;5.30;;;7.50;99.90;;;;;;5008193;28;20049;-81
2022/01/28 12:29:47;;;;;;;32.92;4.55;;;7.70;99.90;;;;;;5025442;28;20544;-80
2022/01/28 12:32:13;;;;;;;35.88;5.63;;;8.00;99.90;;;;;;5024643;28;20435;-81
2022/01/28 12:34:46;;;;;;;34.75;6.55;;;8.30;99.90;;;;;;5025626;28;20388;-81
2022/01/28 12:37:11;;;;;;;29.73;5.45;;;8.50;99.90;;;;;;5008093;28;20061;-81
2022/01/28 12:39:51;;;;;;;25.48;5.45;;;8.60;99.90;;;;;;5024823;28;20416;-80
2022/01/28 12:44:53;;;;;;;19.58;3.50;;;8.50;99.90;;;;;;5025071;28;20049;-81
2022/01/28 12:47:20;;;;;;;28.70;5.18;;;8.60;99.90;;;;;;5023787;28;20042;-80
2022/01/28 12:49:52;;;;;;;29.25;6.15;;;8.50;99.90;;;;;;5023869;28;20049;-80
2022/01/28 12:52:18;;;;;;;29.20;5.25;;;8.40;99.90;;;;;;5023542;28;20539;-80
2022/01/28 12:54:45;;;;;;;27.08;5.20;;;8.40;99.90;;;;;;5024079;28;20049;-81
2022/01/28 12:57:16;;;;;;;15.93;3.65;;;8.50;99.90;;;;;;5025363;28;20038;-80
2022/01/28 12:59:45;;;;;;;17.23;4.20;;;8.60;99.90;;;;;;5025513;28;20047;-80
2022/01/28 13:02:12;;;;;;;21.50;5.22;;;8.80;99.90;;;;;;5025585;28;20045;-81
2022/01/28 13:10:22;;;;;;;22.00;5.43;;;9.30;99.90;;;;;;5025693;28;20049;-81
2022/01/28 13:12:48;;;;;;;24.05;4.40;;;9.60;99.90;;;;;;5024683;28;20071;-81
2022/01/28 13:15:15;;;;;;;22.85;4.68;;;9.80;99.90;;;;;;5024959;28;20120;-80
2022/01/28 13:17:51;;;;;;;23.65;4.22;;;9.80;99.90;;;;;;5024038;28;20125;-80
2022/01/28 13:20:17;;;;;;;23.73;3.72;;;9.50;99.90;;;;;;5025207;28;20681;-80
2022/01/28 13:22:49;;;;;;;31.45;5.57;;;9.10;99.90;;;;;;5024502;28;20061;-80
2022/01/28 13:25:25;;;;;;;23.75;4.43;;;8.90;99.90;;;;;;5024321;28;20500;-81
2022/01/28 13:27:58;;;;;;;16.30;3.53;;;8.50;99.90;;;;;;5023745;28;20053;-80
2022/01/28 13:30:24;;;;;;;21.75;3.65;;;8.10;99.90;;;;;;5024920;28;20045;-81
2022/01/28 13:32:52;;;;;;;18.50;3.47;;;8.00;99.90;;;;;;5024385;28;20220;-80
2022/01/28 13:35:24;;;;;;;29.05;5.10;;;8.00;99.90;;;;;;5023871;28;20056;-81
2022/01/28 13:37:58;;;;;;;25.95;4.63;;;8.10;99.90;;;;;;5023477;28;20064;-81
2022/01/28 13:40:29;;;;;;;21.23;4.22;;;8.10;99.90;;;;;;5025054;28;20125;-81
2022/01/28 13:43:24;;;;;;;18.05;3.50;;;8.20;99.90;;;;;;5023229;28;20053;-81
2022/01/28 13:45:56;;;;;;;20.25;3.35;;;8.20;99.90;;;;;;4989952;28;20065;-80
2022/01/28 13:48:37;;;;;;;20.55;3.85;;;8.10;99.90;;;;;;5024665;28;20138;-81
2022/01/28 13:51:12;;;;;;;23.88;4.57;;;8.10;99.90;;;;;;5025062;28;20132;-80
2022/01/28 13:56:30;;;;;;;18.65;3.03;;;8.00;99.90;;;;;;5023668;28;20056;-80
2022/01/28 13:58:56;;;;;;;19.13;3.25;;;7.90;99.90;;;;;;5023465;28;20037;-81
2022/01/28 14:01:25;;;;;;;15.70;2.92;;;8.00;99.90;;;;;;5023124;28;20052;-81
2022/01/28 14:03:57;;;;;;;19.40;3.38;;;8.10;99.90;;;;;;5004880;28;20519;-80
2022/01/28 14:06:25;;;;;;;14.57;3.85;;;8.00;99.90;;;;;;5024563;28;20061;-81
2022/01/28 14:08:54;;;;;;;26.90;4.00;;;7.90;99.90;;;;;;5022157;28;20060;-81
2022/01/28 14:11:28;;;;;;;18.65;3.67;;;7.70;99.90;;;;;;5022813;28;20056;-81
2022/01/28 14:14:43;;;;;;;19.55;3.20;;;7.60;99.90;;;;;;5022978;28;20049;-81
2022/01/28 14:17:11;;;;;;;21.67;2.83;;;7.40;99.90;;;;;;5004655;28;20080;-81
2022/01/28 14:19:40;;;;;;;25.33;5.20;;;7.30;99.90;;;;;;5023165;28;20057;-80
2022/01/28 14:22:08;;;;;;;21.65;3.75;;;7.10;99.90;;;;;;5022681;28;20049;-80
2022/01/28 14:24:36;;;;;;;20.13;3.60;;;7.10;99.90;;;;;;5023112;28;20346;-81
2022/01/28 14:32:03;;;;;;;25.60;3.85;;;7.10;99.90;;;;;;5004951;28;20546;-81
2022/01/28 14:34:29;;;;;;;28.40;4.30;;;7.20;99.90;;;;;;5022859;28;20057;-81
2022/01/28 14:36:55;;;;;;;19.65;2.78;;;7.20;99.90;;;;;;5023259;28;20037;-81
2022/01/28 14:39:22;;;;;;;21.35;3.55;;;7.20;99.90;;;;;;5024198;28;20059;-81